createdAt,value
2017-11-08T00:01:47.072Z,12.45
2017-11-08T00:04:15.335Z,12.60
2017-11-08T00:06:42.773Z,12.43
2017-11-08T00:09:10.301Z,21.70
2017-11-08T00:11:37.748Z,16.80
2017-11-08T00:14:05.200Z,19.10
2017-11-08T00:16:32.650Z,13.30
2017-11-08T00:19:00.085Z,12.95
2017-11-08T00:21:32.432Z,14.40
2017-11-08T00:23:59.874Z,14.55
2017-11-08T00:26:27.430Z,15.57
2017-11-08T00:28:54.874Z,14.75
2017-11-08T00:31:22.305Z,13.85
2017-11-08T00:33:49.750Z,13.85
2017-11-08T00:36:17.195Z,14.27
2017-11-08T00:38:44.634Z,14.70
2017-11-08T00:41:12.101Z,13.50
2017-11-08T00:43:39.528Z,15.02
2017-11-08T00:46:07.029Z,13.35
2017-11-08T00:48:34.487Z,14.35
2017-11-08T00:51:02.688Z,13.62
2017-11-08T00:53:30.137Z,14.30
2017-11-08T00:55:57.559Z,15.50
2017-11-08T00:58:25.004Z,15.40
2017-11-08T01:00:52.511Z,15.50
2017-11-08T01:03:20.736Z,15.55
2017-11-08T01:05:48.176Z,17.00
2017-11-08T01:08:15.653Z,17.48
2017-11-08T01:10:43.097Z,16.17
2017-11-08T01:13:10.617Z,16.40
2017-11-08T01:15:38.057Z,17.67
2017-11-08T01:18:05.484Z,15.77
2017-11-08T01:20:32.924Z,17.33
2017-11-08T01:23:00.360Z,16.42
2017-11-08T01:25:27.812Z,16.35
2017-11-08T01:27:55.259Z,16.77
2017-11-08T01:30:22.710Z,18.48
2017-11-08T01:32:50.143Z,18.27
2017-11-08T01:35:17.574Z,20.90
2017-11-08T01:37:46.947Z,21.95
2017-11-08T01:40:18.932Z,22.25
2017-11-08T01:42:46.376Z,21.73
2017-11-08T01:45:13.820Z,22.85
2017-11-08T01:47:41.260Z,23.87
2017-11-08T01:50:08.691Z,22.85
2017-11-08T03:14:33.324Z,25.85
2017-11-08T03:17:00.761Z,25.90
2017-11-08T03:19:28.207Z,26.10
2017-11-08T03:21:55.661Z,29.73
2017-11-08T03:24:23.156Z,25.62
2017-11-08T03:26:51.352Z,27.17
2017-11-08T03:29:18.797Z,25.98
2017-11-08T03:31:46.240Z,25.10
2017-11-08T03:34:13.671Z,25.90
2017-11-08T03:36:41.117Z,23.30
2017-11-08T03:39:08.550Z,22.85
2017-11-08T03:41:36.005Z,21.05
2017-11-08T03:44:03.432Z,16.83
2017-11-08T03:46:30.884Z,18.95
2017-11-08T03:48:58.316Z,14.98
2017-11-08T03:51:25.804Z,12.98
2017-11-08T03:53:53.258Z,12.75
2017-11-08T03:56:20.717Z,14.43
2017-11-08T03:58:48.149Z,13.07
2017-11-08T04:01:15.588Z,12.18
2017-11-08T04:03:43.034Z,11.65
2017-11-08T04:06:10.467Z,11.63
2017-11-08T04:08:37.927Z,12.35
2017-11-08T04:11:05.366Z,10.93
2017-11-08T04:13:32.861Z,10.95
2017-11-08T04:16:00.301Z,10.57
2017-11-08T04:18:27.774Z,10.77
2017-11-08T04:20:55.209Z,10.27
2017-11-08T04:23:22.636Z,9.38
2017-11-08T04:25:50.253Z,9.75
2017-11-08T04:28:18.468Z,8.65
2017-11-08T04:30:45.928Z,10.23
2017-11-08T04:33:13.356Z,8.57
2017-11-08T04:35:40.926Z,9.50
2017-11-08T04:38:08.452Z,8.98
2017-11-08T04:40:35.912Z,9.32
2017-11-08T04:43:03.459Z,8.82
2017-11-08T04:45:30.893Z,11.35
2017-11-08T04:47:58.358Z,8.43
2017-11-08T04:50:25.820Z,7.40
2017-11-08T04:52:54.051Z,8.10
2017-11-08T04:55:21.507Z,8.35
2017-11-08T04:57:48.952Z,7.50
2017-11-08T05:00:17.149Z,8.05
2017-11-08T05:02:44.608Z,9.07
2017-11-08T05:05:12.036Z,9.38
2017-11-08T05:07:39.469Z,8.30
2017-11-08T05:10:06.921Z,7.80
2017-11-08T05:12:34.343Z,8.32
2017-11-08T05:15:01.791Z,8.40
2017-11-08T05:17:29.214Z,7.22
2017-11-08T05:19:56.669Z,8.20
2017-11-08T05:22:24.081Z,7.22
2017-11-08T05:24:51.580Z,7.87
2017-11-08T05:27:19.005Z,7.80
2017-11-08T05:29:46.453Z,8.10
2017-11-08T05:32:13.884Z,7.45
2017-11-08T05:34:41.317Z,7.97
2017-11-08T05:37:08.788Z,11.27
2017-11-08T05:39:36.248Z,10.90
2017-11-08T05:42:03.770Z,9.77
2017-11-08T05:44:31.213Z,10.85
2017-11-08T05:46:58.656Z,9.27
2017-11-08T05:49:26.088Z,7.57
2017-11-08T05:51:53.531Z,8.95
2017-11-08T05:54:21.376Z,8.10
2017-11-08T05:56:48.840Z,8.13
2017-11-08T05:59:16.264Z,8.40
2017-11-08T06:01:43.684Z,8.02
2017-11-08T06:04:11.133Z,7.87
2017-11-08T06:06:38.561Z,7.75
2017-11-08T06:09:05.992Z,7.57
2017-11-08T06:11:33.425Z,8.38
2017-11-08T06:14:01.624Z,9.00
2017-11-08T06:16:29.063Z,8.07
2017-11-08T06:18:56.566Z,9.18
2017-11-08T06:21:24.761Z,7.60
2017-11-08T06:23:52.198Z,8.90
2017-11-08T06:26:19.639Z,8.52
2017-11-08T06:28:47.061Z,9.98
2017-11-08T06:31:14.719Z,9.68
2017-11-08T06:33:42.153Z,9.75
2017-11-08T06:36:09.628Z,11.38
2017-11-08T06:38:37.068Z,10.98
2017-11-08T06:41:04.497Z,10.30
2017-11-08T06:43:31.932Z,9.13
2017-11-08T06:45:59.364Z,9.30
2017-11-08T06:48:26.848Z,7.22
2017-11-08T06:50:54.297Z,8.35
2017-11-08T06:53:21.728Z,8.45
2017-11-08T06:55:54.912Z,7.65
2017-11-08T06:58:22.520Z,8.82
2017-11-08T07:00:49.991Z,7.53
2017-11-08T07:03:17.413Z,7.95
2017-11-08T07:05:44.927Z,8.75
2017-11-08T07:08:13.164Z,7.28
2017-11-08T07:10:40.628Z,7.90
2017-11-08T07:13:08.077Z,6.62
2017-11-08T07:15:35.504Z,7.10
2017-11-08T07:18:02.937Z,7.45
2017-11-08T07:20:30.377Z,7.53
2017-11-08T07:22:58.573Z,8.40
2017-11-08T07:25:26.032Z,7.03
2017-11-08T07:27:53.459Z,6.53
2017-11-08T07:30:20.895Z,6.87
2017-11-08T07:32:48.360Z,7.05
2017-11-08T07:35:15.801Z,7.90
2017-11-08T07:37:43.224Z,6.72
2017-11-08T07:40:10.679Z,8.45
2017-11-08T07:42:38.124Z,8.05
2017-11-08T07:45:05.587Z,8.80
2017-11-08T07:47:33.021Z,8.80
2017-11-08T07:50:00.465Z,8.65
2017-11-08T07:52:27.899Z,9.20
2017-11-08T07:55:01.016Z,8.75
2017-11-08T07:57:29.219Z,8.65
2017-11-08T07:59:56.656Z,8.50
2017-11-08T08:02:24.089Z,9.20
2017-11-08T08:04:51.585Z,10.02
2017-11-08T08:07:19.976Z,9.65
2017-11-08T08:09:50.224Z,9.93
2017-11-08T08:12:17.651Z,10.10
2017-11-08T08:14:45.109Z,10.43
2017-11-08T08:17:12.545Z,11.60
2017-11-08T08:19:40.100Z,10.00
2017-11-08T08:22:07.575Z,9.45
2017-11-08T08:24:35.108Z,10.45
2017-11-08T08:27:08.304Z,11.15
2017-11-08T08:29:39.105Z,18.77
2017-11-08T08:32:06.538Z,12.30
2017-11-08T08:34:34.045Z,10.88
2017-11-08T08:37:01.480Z,10.50
2017-11-08T08:39:28.946Z,10.32
2017-11-08T08:41:56.412Z,9.70
2017-11-08T08:44:23.848Z,8.90
2017-11-08T08:46:52.056Z,11.20
2017-11-08T08:49:20.257Z,11.75
2017-11-08T08:51:47.713Z,9.25
2017-11-08T08:54:15.141Z,8.13
2017-11-08T08:56:42.602Z,9.98
2017-11-08T08:59:10.032Z,10.10
2017-11-08T09:01:37.464Z,9.60
2017-11-08T09:04:04.921Z,11.07
2017-11-08T09:06:32.336Z,9.55
2017-11-08T09:08:59.776Z,11.85
2017-11-08T09:11:27.222Z,12.35
2017-11-08T09:13:54.684Z,10.15
2017-11-08T09:16:22.140Z,10.00
2017-11-08T09:18:49.576Z,8.80
2017-11-08T09:21:17.013Z,9.60
2017-11-08T09:23:44.448Z,8.10
2017-11-08T09:26:26.760Z,8.82
2017-11-08T09:28:55.020Z,9.07
2017-11-08T09:31:28.565Z,10.55
2017-11-08T09:33:56.032Z,10.85
2017-11-08T09:36:23.469Z,12.07
2017-11-08T09:38:50.914Z,11.82
2017-11-08T09:41:18.340Z,17.92
2017-11-08T09:43:45.784Z,12.32
2017-11-08T09:46:14.053Z,10.43
2017-11-08T09:48:41.530Z,9.27
2017-11-08T09:51:10.752Z,10.02
2017-11-08T09:53:38.233Z,10.45
2017-11-08T09:56:07.481Z,8.48
2017-11-08T09:58:34.916Z,12.30
2017-11-08T10:01:03.131Z,11.10
2017-11-08T10:03:30.596Z,11.27
2017-11-08T10:05:58.036Z,10.23
2017-11-08T10:08:25.478Z,11.50
2017-11-08T10:10:58.861Z,8.05
2017-11-08T10:13:27.265Z,8.70
2017-11-08T10:15:54.704Z,8.20
2017-11-08T10:18:22.141Z,8.70
2017-11-08T10:20:49.687Z,8.60
2017-11-08T10:23:20.074Z,8.27
2017-11-08T10:25:47.511Z,8.07
2017-11-08T10:28:14.960Z,6.85
2017-11-08T10:30:42.405Z,12.02
2017-11-08T10:33:09.877Z,8.75
2017-11-08T10:35:38.077Z,11.27
2017-11-08T10:38:05.516Z,8.10
2017-11-08T10:40:32.977Z,8.52
2017-11-08T10:43:00.369Z,8.68
2017-11-08T10:45:27.808Z,7.70
2017-11-08T10:47:55.241Z,8.48
2017-11-08T10:50:22.727Z,8.10
2017-11-08T10:52:55.930Z,7.87
2017-11-08T10:55:24.165Z,8.23
2017-11-08T10:57:51.600Z,8.15
2017-11-08T11:00:24.727Z,7.75
2017-11-08T11:02:59.132Z,9.85
2017-11-08T11:05:26.570Z,9.60
2017-11-08T11:07:54.770Z,8.07
2017-11-08T11:10:22.197Z,8.00
2017-11-08T11:12:49.677Z,8.18
2017-11-08T11:15:17.109Z,8.95
2017-11-08T11:17:44.541Z,7.93
2017-11-08T11:20:11.984Z,8.23
2017-11-08T11:22:39.430Z,7.12
2017-11-08T11:25:06.881Z,7.15
2017-11-08T11:27:34.318Z,7.87
2017-11-08T11:30:02.537Z,8.25
2017-11-08T11:32:32.770Z,7.80
2017-11-08T11:35:00.237Z,7.57
2017-11-08T11:37:30.473Z,7.72
2017-11-08T11:39:57.917Z,8.85
2017-11-08T11:42:25.367Z,9.07
2017-11-08T11:44:52.815Z,7.75
2017-11-08T11:47:20.264Z,7.82
2017-11-08T11:49:48.502Z,7.47
2017-11-08T11:52:15.965Z,7.20
2017-11-08T11:54:43.402Z,7.30
2017-11-08T11:57:13.247Z,7.05
2017-11-08T11:59:41.458Z,7.55
2017-11-08T12:02:08.934Z,7.20
2017-11-08T12:04:36.373Z,6.85
2017-11-08T12:07:03.819Z,7.43
2017-11-08T12:09:31.278Z,8.13
2017-11-08T12:11:59.483Z,8.30
2017-11-08T12:14:26.928Z,6.60
2017-11-08T12:16:57.305Z,6.93
2017-11-08T12:19:24.769Z,8.98
2017-11-08T12:21:52.195Z,7.70
2017-11-08T12:24:19.639Z,6.97
2017-11-08T12:26:47.097Z,9.88
2017-11-08T12:29:14.757Z,8.00
2017-11-08T12:31:42.295Z,7.75
2017-11-08T12:34:10.635Z,7.85
2017-11-08T12:36:38.072Z,8.75
2017-11-08T12:39:05.581Z,8.00
2017-11-08T12:41:35.876Z,8.25
2017-11-08T12:44:03.314Z,7.32
2017-11-08T12:46:36.697Z,6.78
2017-11-08T12:49:04.146Z,7.37
2017-11-08T12:51:31.588Z,8.07
2017-11-08T12:53:59.026Z,7.28
2017-11-08T12:56:26.483Z,8.23
2017-11-08T12:58:55.384Z,6.70
2017-11-08T13:01:22.824Z,8.32
2017-11-08T13:03:51.033Z,6.20
2017-11-08T13:06:18.475Z,7.28
2017-11-08T13:08:45.950Z,7.10
2017-11-08T13:11:18.984Z,7.80
2017-11-08T13:13:46.420Z,6.43
2017-11-08T13:16:13.894Z,7.50
2017-11-08T13:18:41.347Z,7.25
2017-11-08T13:21:08.788Z,7.85
2017-11-08T13:23:36.217Z,7.25
2017-11-08T13:26:03.658Z,6.72
2017-11-08T13:28:31.302Z,6.80
2017-11-08T13:30:58.738Z,6.93
2017-11-08T13:33:26.224Z,7.28
2017-11-08T13:35:54.444Z,7.72
2017-11-08T13:38:21.940Z,7.40
2017-11-08T13:40:50.561Z,8.15
2017-11-08T13:43:18.279Z,8.10
2017-11-08T13:45:52.619Z,7.10
2017-11-08T13:48:20.093Z,6.35
2017-11-08T13:50:47.598Z,7.43
2017-11-08T13:53:15.077Z,8.15
2017-11-08T13:55:42.529Z,8.20
2017-11-08T13:58:09.980Z,7.37
2017-11-08T14:00:38.194Z,7.72
2017-11-08T14:03:05.656Z,7.78
2017-11-08T14:05:33.199Z,7.75
2017-11-08T14:08:00.643Z,7.72
2017-11-08T14:10:28.182Z,10.80
2017-11-08T14:12:55.621Z,8.68
2017-11-08T14:15:23.058Z,8.60
2017-11-08T14:17:50.565Z,8.00
2017-11-08T14:20:18.031Z,7.85
2017-11-08T14:22:45.521Z,8.23
2017-11-08T14:25:13.719Z,6.32
2017-11-08T14:27:41.198Z,8.23
2017-11-08T14:30:08.633Z,7.60
2017-11-08T14:32:39.869Z,9.18
2017-11-08T14:35:07.297Z,8.05
2017-11-08T14:37:34.757Z,7.95
2017-11-08T14:40:02.209Z,6.80
2017-11-08T14:42:35.328Z,8.77
2017-11-08T14:45:02.788Z,7.85
2017-11-08T14:47:30.250Z,7.50
2017-11-08T14:49:57.672Z,8.45
2017-11-08T14:52:25.121Z,7.68
2017-11-08T14:54:52.605Z,7.40
2017-11-08T14:57:20.045Z,9.10
2017-11-08T14:59:47.500Z,8.65
2017-11-08T15:02:14.935Z,8.70
2017-11-08T15:04:43.140Z,8.80
2017-11-08T15:07:10.585Z,9.15
2017-11-08T15:09:38.040Z,8.90
2017-11-08T15:12:05.474Z,8.52
2017-11-08T15:14:39.585Z,8.23
2017-11-08T15:17:07.015Z,7.60
2017-11-08T15:19:49.186Z,8.55
2017-11-08T15:22:16.629Z,8.55
2017-11-08T15:24:44.071Z,8.45
2017-11-08T15:27:11.501Z,8.80
2017-11-08T15:29:39.137Z,9.98
2017-11-08T15:32:07.338Z,8.88
2017-11-08T15:34:34.871Z,7.65
2017-11-08T15:37:02.296Z,8.90
2017-11-08T15:39:30.510Z,10.70
2017-11-08T15:41:57.958Z,8.73
2017-11-08T15:44:25.394Z,9.18
2017-11-08T15:46:54.673Z,8.82
2017-11-08T15:49:22.111Z,7.53
2017-11-08T15:51:49.541Z,9.23
2017-11-08T15:54:17.007Z,8.40
2017-11-08T15:56:44.441Z,9.32
2017-11-08T15:59:11.888Z,8.75
2017-11-08T16:01:42.242Z,8.00
2017-11-08T16:04:12.328Z,10.30
2017-11-08T16:06:39.769Z,9.70
2017-11-08T16:09:10.333Z,9.25
2017-11-08T16:11:37.786Z,9.50
2017-11-08T16:14:05.234Z,8.93
2017-11-08T16:16:32.672Z,9.63
2017-11-08T16:19:03.085Z,8.73
2017-11-08T16:21:31.288Z,8.85
2017-11-08T16:23:58.736Z,9.50
2017-11-08T16:26:26.252Z,9.57
2017-11-08T16:28:55.030Z,9.00
2017-11-08T16:31:23.983Z,9.77
2017-11-08T16:33:51.432Z,11.80
2017-11-08T16:36:18.866Z,9.35
2017-11-08T16:38:46.392Z,10.15
2017-11-08T16:41:13.830Z,11.07
2017-11-08T16:43:41.274Z,9.40
2017-11-08T16:46:08.749Z,8.63
2017-11-08T16:48:36.189Z,9.07
2017-11-08T16:51:03.654Z,10.50
2017-11-08T16:53:32.006Z,10.65
2017-11-08T16:55:59.542Z,10.30
2017-11-08T16:58:27.087Z,9.98
2017-11-08T17:00:54.535Z,10.80
2017-11-08T17:03:21.964Z,10.60
2017-11-08T17:05:49.420Z,9.90
2017-11-08T17:08:16.872Z,10.60
2017-11-08T17:10:44.400Z,9.50
2017-11-08T17:13:12.129Z,10.82
2017-11-08T17:15:39.610Z,10.50
2017-11-08T17:18:07.054Z,11.20
2017-11-08T17:20:35.269Z,10.50
2017-11-08T17:23:03.120Z,11.27
2017-11-08T17:25:30.622Z,10.30
2017-11-08T17:27:58.853Z,9.77
2017-11-08T17:30:26.303Z,9.82
2017-11-08T17:32:53.746Z,10.25
2017-11-08T17:35:21.189Z,9.38
2017-11-08T17:37:48.638Z,10.95
2017-11-08T17:40:16.086Z,12.05
2017-11-08T17:42:43.520Z,11.95
2017-11-08T17:45:10.961Z,10.88
2017-11-08T17:47:38.415Z,11.12
2017-11-08T17:50:05.856Z,12.30
2017-11-08T17:52:33.309Z,10.75
2017-11-08T17:55:02.805Z,10.90
2017-11-08T17:57:31.124Z,10.65
2017-11-08T17:59:58.614Z,9.75
2017-11-08T18:02:26.813Z,10.73
2017-11-08T18:04:54.282Z,11.95
2017-11-08T18:07:21.717Z,10.13
2017-11-08T18:09:49.167Z,11.32
2017-11-08T18:12:16.614Z,11.52
2017-11-08T18:14:44.054Z,10.45
2017-11-08T18:17:11.510Z,9.75
2017-11-08T18:19:39.729Z,13.70
2017-11-08T18:22:07.163Z,11.85
2017-11-08T18:24:34.608Z,13.10
2017-11-08T18:27:02.054Z,10.48
2017-11-08T18:29:29.507Z,11.10
2017-11-08T18:31:56.949Z,11.48
2017-11-08T18:34:24.378Z,12.05
2017-11-08T18:36:51.822Z,11.25
2017-11-08T18:39:19.252Z,11.85
2017-11-08T18:41:46.705Z,11.07
2017-11-08T18:44:14.911Z,11.90
2017-11-08T18:46:43.114Z,11.82
2017-11-08T18:49:10.549Z,11.93
2017-11-08T18:51:37.996Z,12.70
2017-11-08T18:54:05.457Z,13.23
2017-11-08T18:56:36.327Z,12.20
2017-11-08T18:59:04.034Z,12.52
2017-11-08T19:01:31.473Z,12.07
2017-11-08T19:03:59.443Z,12.37
2017-11-08T19:06:26.889Z,11.07
2017-11-08T19:08:54.389Z,12.85
2017-11-08T19:11:22.943Z,13.35
2017-11-08T19:13:50.385Z,13.77
2017-11-08T19:16:17.848Z,17.77
2017-11-08T19:18:45.386Z,16.85
2017-11-08T19:21:12.849Z,13.38
2017-11-08T19:23:40.296Z,13.52
2017-11-08T19:26:07.801Z,12.32
2017-11-08T19:28:35.237Z,12.70
2017-11-08T19:31:02.684Z,13.30
2017-11-08T19:33:30.205Z,13.70
2017-11-08T19:35:58.524Z,12.55
2017-11-08T19:38:26.001Z,14.27
2017-11-08T19:40:53.463Z,13.32
2017-11-08T19:43:20.974Z,13.65
2017-11-08T19:45:49.918Z,13.30
2017-11-08T19:48:17.383Z,13.23
2017-11-08T19:50:44.808Z,12.35
2017-11-08T19:53:12.260Z,12.50
2017-11-08T19:55:39.717Z,11.98
2017-11-08T19:58:07.158Z,13.75
2017-11-08T20:00:34.594Z,14.00
2017-11-08T20:03:02.030Z,13.95
2017-11-08T20:05:29.480Z,13.10
2017-11-08T20:07:57.842Z,12.70
2017-11-08T20:10:25.282Z,13.93
2017-11-08T20:12:52.773Z,12.77
2017-11-08T20:15:21.094Z,12.98
2017-11-08T20:17:48.526Z,20.67
2017-11-08T20:20:15.962Z,20.48
2017-11-08T20:22:43.421Z,18.70
2017-11-08T20:25:10.876Z,16.30
2017-11-08T20:27:38.337Z,13.32
2017-11-08T20:30:05.787Z,13.60
2017-11-08T20:32:34.069Z,13.32
2017-11-08T20:35:02.296Z,13.10
2017-11-08T20:37:29.741Z,17.40
2017-11-08T20:39:57.187Z,14.05
2017-11-08T20:42:24.639Z,14.07
2017-11-08T20:44:52.077Z,13.60
2017-11-08T20:47:19.724Z,13.65
2017-11-08T20:49:47.170Z,13.55
2017-11-08T20:52:14.649Z,13.85
2017-11-08T20:54:42.094Z,13.65
2017-11-08T20:57:09.529Z,14.63
2017-11-08T20:59:36.981Z,13.43
2017-11-08T21:02:04.418Z,13.57
2017-11-08T21:04:31.918Z,15.13
2017-11-08T21:06:59.417Z,12.93
2017-11-08T21:09:26.941Z,14.73
2017-11-08T21:11:54.437Z,13.73
2017-11-08T21:14:21.905Z,14.77
2017-11-08T21:16:50.108Z,13.35
2017-11-08T21:19:17.545Z,15.50
2017-11-08T21:21:45.993Z,15.60
2017-11-08T21:24:13.460Z,13.50
2017-11-08T21:26:40.897Z,15.13
2017-11-08T21:29:08.334Z,13.70
2017-11-08T21:31:35.777Z,16.08
2017-11-08T21:34:03.205Z,14.18
2017-11-08T21:36:30.657Z,20.73
2017-11-08T21:38:58.113Z,13.55
2017-11-08T21:41:25.540Z,13.98
2017-11-08T21:43:52.985Z,14.13
2017-11-08T21:46:20.422Z,14.13
2017-11-08T21:48:47.856Z,12.45
2017-11-08T21:51:15.284Z,12.82
2017-11-08T21:53:42.748Z,13.48
2017-11-08T21:56:10.196Z,12.50
2017-11-08T21:58:37.745Z,13.30
2017-11-08T22:01:05.193Z,13.00
2017-11-08T22:03:32.675Z,13.05
2017-11-08T22:06:00.130Z,13.90
2017-11-08T22:08:28.337Z,12.95
2017-11-08T22:10:55.786Z,13.15
2017-11-08T22:13:23.993Z,12.48
2017-11-08T22:15:52.237Z,13.98
2017-11-08T22:18:19.688Z,14.50
2017-11-08T22:20:47.145Z,13.65
2017-11-08T22:23:15.355Z,13.70
2017-11-08T22:25:42.814Z,13.20
2017-11-08T22:28:10.253Z,14.20
2017-11-08T22:30:37.684Z,12.57
2017-11-08T22:33:05.141Z,14.63
2017-11-08T22:35:32.591Z,12.88
2017-11-08T22:38:00.065Z,14.30
2017-11-08T22:40:28.295Z,13.88
2017-11-08T22:42:55.772Z,13.15
2017-11-08T22:45:24.022Z,13.93
2017-11-08T22:47:52.248Z,12.90
2017-11-08T22:50:19.706Z,13.43
2017-11-08T22:52:47.334Z,12.45
2017-11-08T22:55:14.798Z,12.45
2017-11-08T22:57:42.264Z,12.85
2017-11-08T23:00:10.543Z,11.98
2017-11-08T23:02:37.995Z,13.73
2017-11-08T23:05:05.428Z,13.27
2017-11-08T23:07:32.942Z,13.70
2017-11-08T23:10:00.381Z,43.87
2017-11-08T23:12:27.829Z,16.25
2017-11-08T23:14:55.269Z,13.30
2017-11-08T23:17:22.718Z,13.27
2017-11-08T23:19:50.923Z,12.32
2017-11-08T23:22:18.635Z,13.88
2017-11-08T23:24:46.887Z,12.73
2017-11-08T23:27:14.329Z,13.38
2017-11-08T23:29:41.792Z,32.00
2017-11-08T23:32:09.996Z,22.42
2017-11-08T23:34:37.480Z,20.25
2017-11-08T23:37:05.004Z,14.70
2017-11-08T23:39:32.605Z,12.30
2017-11-08T23:42:00.051Z,12.25
2017-11-08T23:44:27.500Z,12.37
2017-11-08T23:46:54.945Z,11.48
2017-11-08T23:49:22.597Z,12.40
2017-11-08T23:51:50.066Z,11.05
2017-11-08T23:54:17.497Z,12.45
2017-11-08T23:56:44.944Z,12.13
2017-11-08T23:59:18.048Z,11.60
